createdAt,value
2023-05-10T00:00:49.333Z,400.0000
2023-05-10T00:01:57.432Z,400.0000
2023-05-10T00:03:05.643Z,400.0000
2023-05-10T00:04:13.621Z,400.0000
2023-05-10T00:05:21.501Z,400.0000
2023-05-10T00:06:29.470Z,400.0000
2023-05-10T00:07:37.523Z,400.0000
2023-05-10T00:08:45.712Z,400.0000
2023-05-10T00:09:53.856Z,400.0000
2023-05-10T00:11:01.860Z,400.0000
2023-05-10T00:12:09.922Z,400.0000
2023-05-10T00:13:18.048Z,400.0000
2023-05-10T00:14:26.085Z,400.0000
2023-05-10T00:15:34.048Z,400.0000
2023-05-10T00:16:42.149Z,400.0000
2023-05-10T00:17:50.178Z,400.0000
2023-05-10T00:18:58.237Z,400.0000
2023-05-10T00:20:06.198Z,400.0000
2023-05-10T00:21:14.196Z,400.0000
2023-05-10T00:22:22.253Z,400.0000
2023-05-10T00:23:30.468Z,400.0000
2023-05-10T00:24:38.474Z,400.0000
2023-05-10T00:25:46.794Z,400.0000
2023-05-10T00:26:54.944Z,400.0000
2023-05-10T00:28:02.663Z,400.0000
2023-05-10T00:29:10.702Z,400.0000
2023-05-10T00:30:19.041Z,400.0000
2023-05-10T00:31:26.863Z,400.0000
2023-05-10T00:32:34.918Z,400.0000
2023-05-10T00:33:42.922Z,400.0000
2023-05-10T00:34:50.875Z,400.0000
2023-05-10T00:35:58.896Z,400.0000
2023-05-10T00:37:06.996Z,400.0000
2023-05-10T00:38:15.227Z,400.0000
2023-05-10T00:39:23.292Z,400.0000
2023-05-10T00:40:31.341Z,400.0000
2023-05-10T00:41:39.436Z,400.0000
2023-05-10T00:42:47.589Z,400.0000
2023-05-10T00:43:55.486Z,400.0000
2023-05-10T00:45:03.529Z,400.0000
2023-05-10T00:46:11.751Z,400.0000
2023-05-10T00:47:19.644Z,400.0000
2023-05-10T00:48:27.783Z,400.0000
2023-05-10T00:49:35.620Z,400.0000
2023-05-10T00:50:43.690Z,400.0000
2023-05-10T00:51:51.721Z,400.0000
2023-05-10T00:52:59.976Z,400.0000
2023-05-10T00:54:08.023Z,400.0000
2023-05-10T00:55:16.035Z,400.0000
2023-05-10T00:56:24.086Z,400.0000
2023-05-10T00:57:32.166Z,400.0000
2023-05-10T00:58:40.319Z,400.0000
2023-05-10T00:59:48.299Z,400.0000
2023-05-10T01:00:56.426Z,400.0000
2023-05-10T01:02:04.479Z,400.0000
2023-05-10T01:03:12.582Z,400.0000
2023-05-10T01:04:20.396Z,400.0000
2023-05-10T01:05:28.478Z,400.0000
2023-05-10T01:06:36.476Z,400.0000
2023-05-10T01:07:44.708Z,400.0000
2023-05-10T01:08:52.724Z,400.0000
2023-05-10T01:10:00.800Z,400.0000
2023-05-10T01:11:08.861Z,400.0000
2023-05-10T01:12:16.979Z,400.0000
2023-05-10T01:13:25.008Z,400.0000
2023-05-10T01:14:33.144Z,400.0000
2023-05-10T01:15:41.147Z,400.0000
2023-05-10T01:16:49.106Z,400.0000
2023-05-10T01:17:57.209Z,400.0000
2023-05-10T01:19:05.089Z,400.0000
2023-05-10T01:20:13.190Z,400.0000
2023-05-10T01:21:21.259Z,400.0000
2023-05-10T01:22:29.407Z,400.0000
2023-05-10T01:23:37.456Z,400.0000
2023-05-10T01:24:45.502Z,400.0000
2023-05-10T01:25:53.573Z,400.0000
2023-05-10T01:27:01.654Z,400.0000
2023-05-10T01:28:09.672Z,400.0000
2023-05-10T01:29:17.758Z,400.0000
2023-05-10T01:30:25.909Z,400.0000
2023-05-10T01:31:33.959Z,400.0000
2023-05-10T01:32:42.136Z,400.0000
2023-05-10T01:33:49.834Z,400.0000
2023-05-10T01:34:57.887Z,400.0000
2023-05-10T01:36:05.940Z,400.0000
2023-05-10T01:37:14.134Z,400.0000
2023-05-10T01:38:22.207Z,400.0000
2023-05-10T01:39:30.236Z,400.0000
2023-05-10T01:40:38.289Z,400.0000
2023-05-10T01:41:46.384Z,400.0000
2023-05-10T01:42:54.402Z,400.0000
2023-05-10T01:44:02.435Z,400.0000
2023-05-10T01:45:10.496Z,400.0000
2023-05-10T01:46:18.673Z,400.0000
2023-05-10T01:47:26.707Z,400.0000
2023-05-10T01:48:34.540Z,400.0000
2023-05-10T01:49:42.574Z,400.0000
2023-05-10T01:50:50.665Z,400.0000
2023-05-10T01:51:58.901Z,400.0000
2023-05-10T01:53:06.942Z,400.0000
2023-05-10T01:54:14.983Z,400.0000
2023-05-10T01:55:23.039Z,400.0000
2023-05-10T01:56:31.193Z,400.0000
2023-05-10T01:57:39.176Z,400.0000
2023-05-10T01:58:47.292Z,400.0000
2023-05-10T01:59:55.258Z,400.0000
2023-05-10T02:01:03.398Z,400.0000
2023-05-10T02:02:11.379Z,400.0000
2023-05-10T02:03:19.303Z,400.0000
2023-05-10T02:04:27.317Z,400.0000
2023-05-10T02:05:35.390Z,400.0000
2023-05-10T02:06:43.658Z,400.0000
2023-05-10T02:07:51.601Z,400.0000
2023-05-10T02:08:59.727Z,400.0000
2023-05-10T02:10:07.731Z,400.0000
2023-05-10T02:11:15.802Z,400.0000
2023-05-10T02:12:23.992Z,400.0000
2023-05-10T02:13:31.983Z,400.0000
2023-05-10T02:14:39.934Z,400.0000
2023-05-10T02:15:48.000Z,400.0000
2023-05-10T02:16:56.186Z,400.0000
2023-05-10T02:18:04.256Z,400.0000
2023-05-10T02:19:12.043Z,400.0000
2023-05-10T02:20:20.327Z,400.0000
2023-05-10T02:21:28.160Z,400.0000
2023-05-10T02:22:36.364Z,400.0000
2023-05-10T02:23:44.475Z,400.0000
2023-05-10T02:24:52.464Z,400.0000
2023-05-10T02:26:00.737Z,400.0000
2023-05-10T02:27:08.559Z,400.0000
2023-05-10T02:28:16.715Z,400.0000
2023-05-10T02:29:24.724Z,400.0000
2023-05-10T02:30:32.873Z,400.0000
2023-05-10T02:31:41.331Z,400.0000
2023-05-10T02:32:48.795Z,400.0000
2023-05-10T02:33:56.795Z,400.0000
2023-05-10T02:35:04.880Z,400.0000
2023-05-10T02:36:13.052Z,400.0000
2023-05-10T02:37:21.211Z,400.0000
2023-05-10T02:38:29.258Z,400.0000
2023-05-10T02:39:37.261Z,400.0000
2023-05-10T02:40:45.269Z,400.0000
2023-05-10T02:41:53.398Z,400.0000
2023-05-10T02:43:01.416Z,400.0000
2023-05-10T02:44:09.692Z,400.0000
2023-05-10T02:45:17.609Z,400.0000
2023-05-10T02:46:25.790Z,400.0000
2023-05-10T02:47:33.624Z,400.0000
2023-05-10T02:48:41.535Z,400.0000
2023-05-10T02:49:49.583Z,400.0000
2023-05-10T02:50:57.886Z,400.0000
2023-05-10T02:52:10.735Z,400.0000
2023-05-10T02:53:19.019Z,400.0000
2023-05-10T02:54:26.833Z,400.0000
2023-05-10T02:55:34.921Z,400.0000
2023-05-10T02:56:42.984Z,400.0000
2023-05-10T02:57:50.981Z,400.0000
2023-05-10T02:58:59.102Z,400.0000
2023-05-10T03:00:07.109Z,400.0000
2023-05-10T03:01:15.053Z,400.0000
2023-05-10T03:02:23.146Z,400.0000
2023-05-10T03:03:31.120Z,400.0000
2023-05-10T03:04:39.433Z,400.0000
2023-05-10T03:05:47.353Z,400.0000
2023-05-10T03:06:55.441Z,400.0000
2023-05-10T03:08:03.599Z,400.0000
2023-05-10T03:09:11.679Z,400.0000
2023-05-10T03:10:19.726Z,400.0000
2023-05-10T03:11:27.673Z,400.0000
2023-05-10T03:12:35.695Z,400.0000
2023-05-10T03:13:43.825Z,400.0000
2023-05-10T03:14:51.990Z,400.0714
2023-05-10T03:15:59.782Z,400.0000
2023-05-10T03:17:07.803Z,400.4286
2023-05-10T03:18:15.925Z,400.0000
2023-05-10T03:19:24.185Z,400.0000
2023-05-10T03:20:32.182Z,400.4286
2023-05-10T03:21:40.262Z,400.0000
2023-05-10T03:22:48.109Z,400.0714
2023-05-10T03:23:56.345Z,400.0000
2023-05-10T03:25:04.524Z,401.4286
2023-05-10T03:26:12.393Z,401.0000
2023-05-10T03:27:20.472Z,400.6429
2023-05-10T03:28:28.654Z,400.2857
2023-05-10T03:29:36.620Z,400.1429
2023-05-10T03:30:44.506Z,400.4286
2023-05-10T03:31:52.684Z,400.0000
2023-05-10T03:33:00.785Z,400.0000
2023-05-10T03:34:08.861Z,400.0000
2023-05-10T03:35:16.987Z,400.0714
2023-05-10T03:36:24.945Z,400.6429
2023-05-10T03:37:32.971Z,400.0000
2023-05-10T03:38:41.078Z,400.0000
2023-05-10T03:39:49.210Z,400.0714
2023-05-10T03:40:57.468Z,400.0000
2023-05-10T03:42:05.290Z,400.2143
2023-05-10T03:43:13.323Z,400.1429
2023-05-10T03:44:21.412Z,400.0000
2023-05-10T03:45:29.254Z,400.0000
2023-05-10T03:46:37.388Z,400.1429
2023-05-10T03:47:45.505Z,400.8571
2023-05-10T03:48:53.578Z,400.5000
2023-05-10T03:50:01.678Z,401.3571
2023-05-10T03:51:09.835Z,402.3571
2023-05-10T03:52:17.921Z,400.2857
2023-05-10T03:53:26.161Z,401.2857
2023-05-10T03:54:34.000Z,400.4286
2023-05-10T03:55:41.978Z,401.0714
2023-05-10T03:56:50.033Z,401.0000
2023-05-10T03:57:58.128Z,403.2143
2023-05-10T03:59:06.041Z,403.5714
2023-05-10T04:00:14.046Z,403.0714
2023-05-10T04:01:22.021Z,406.9286
2023-05-10T04:02:30.213Z,401.7857
2023-05-10T04:03:38.383Z,403.9286
2023-05-10T04:04:46.383Z,404.7857
2023-05-10T04:05:54.367Z,409.0000
2023-05-10T04:07:02.436Z,414.0000
2023-05-10T04:08:10.449Z,410.7857
2023-05-10T04:09:18.567Z,408.7857
2023-05-10T04:10:26.672Z,410.1429
2023-05-10T04:11:34.799Z,409.8571
2023-05-10T04:12:42.836Z,405.2857
2023-05-10T04:13:50.766Z,406.8571
2023-05-10T04:14:58.703Z,413.0714
2023-05-10T04:16:06.843Z,409.2857
2023-05-10T04:17:14.905Z,405.2857
2023-05-10T04:18:23.025Z,410.5714
2023-05-10T04:19:31.105Z,409.0000
2023-05-10T04:20:39.140Z,410.0000
2023-05-10T04:21:47.181Z,405.5714
2023-05-10T04:22:55.237Z,406.4286
2023-05-10T04:24:03.155Z,405.1429
2023-05-10T04:25:11.521Z,409.7857
2023-05-10T04:26:19.411Z,411.3571
2023-05-10T04:27:27.517Z,409.5000
2023-05-10T04:28:35.532Z,407.5000
2023-05-10T04:29:43.511Z,405.6429
2023-05-10T04:30:51.545Z,410.8571
2023-05-10T04:31:59.567Z,413.0714
2023-05-10T04:33:07.889Z,412.2143
2023-05-10T04:34:15.806Z,413.5000
2023-05-10T04:35:23.873Z,412.1429
2023-05-10T04:36:31.933Z,410.6429
2023-05-10T04:37:39.949Z,414.1429
2023-05-10T04:38:48.077Z,410.7857
2023-05-10T04:39:56.114Z,413.5000
2023-05-10T04:41:04.164Z,407.7857
2023-05-10T04:42:12.454Z,404.6429
2023-05-10T04:43:20.247Z,405.9286
2023-05-10T04:44:28.181Z,404.1429
2023-05-10T04:45:36.225Z,405.8571
2023-05-10T04:46:44.361Z,403.5714
2023-05-10T04:47:52.713Z,403.0714
2023-05-10T04:49:00.562Z,401.7857
2023-05-10T04:50:08.697Z,400.7857
2023-05-10T04:51:16.765Z,401.0714
2023-05-10T04:52:24.763Z,401.1429
2023-05-10T04:53:32.886Z,400.0714
2023-05-10T04:54:41.051Z,400.6429
2023-05-10T04:55:49.090Z,400.2143
2023-05-10T04:56:57.058Z,401.0714
2023-05-10T04:58:05.051Z,400.5714
2023-05-10T04:59:13.019Z,400.0000
2023-05-10T05:00:21.046Z,402.7143
2023-05-10T05:01:29.263Z,401.2143
2023-05-10T05:02:37.397Z,403.6429
2023-05-10T05:03:45.679Z,402.2857
2023-05-10T05:04:53.406Z,403.7143
2023-05-10T05:06:01.578Z,404.4286
2023-05-10T05:07:09.536Z,404.4286
2023-05-10T05:08:17.672Z,402.0000
2023-05-10T05:09:25.650Z,409.7857
2023-05-10T05:10:33.825Z,416.7143
2023-05-10T05:11:41.815Z,416.5000
2023-05-10T05:12:49.841Z,414.2857
2023-05-10T05:13:57.755Z,415.7143
2023-05-10T05:15:07.849Z,413.4286
2023-05-10T05:16:18.852Z,408.6000
2023-05-10T05:17:26.988Z,410.5714
2023-05-10T05:18:34.971Z,409.8571
2023-05-10T05:19:42.983Z,411.4286
2023-05-10T05:20:51.061Z,414.6429
2023-05-10T05:21:59.105Z,417.8571
2023-05-10T05:23:07.239Z,417.1429
2023-05-10T05:24:15.238Z,423.0000
2023-05-10T05:25:23.169Z,424.2857
2023-05-10T05:26:31.469Z,425.4286
2023-05-10T05:27:39.339Z,419.2143
2023-05-10T05:28:47.362Z,430.0000
2023-05-10T05:29:55.380Z,427.2143
2023-05-10T05:31:03.540Z,426.4286
2023-05-10T05:32:11.610Z,427.2143
2023-05-10T05:33:19.768Z,421.0714
2023-05-10T05:34:27.747Z,413.4286
2023-05-10T05:35:35.814Z,412.1429
2023-05-10T05:36:43.831Z,410.0714
2023-05-10T05:37:52.088Z,409.2143
2023-05-10T05:39:00.041Z,413.7143
2023-05-10T05:40:07.998Z,404.7143
2023-05-10T05:41:16.100Z,403.0714
2023-05-10T05:42:24.014Z,405.2857
2023-05-10T05:43:32.016Z,400.2857
2023-05-10T05:44:40.127Z,400.7143
2023-05-10T05:45:48.309Z,402.0000
2023-05-10T05:46:56.631Z,400.4286
2023-05-10T05:48:04.499Z,400.2857
2023-05-10T05:49:12.449Z,401.0714
2023-05-10T05:50:20.556Z,400.1429
2023-05-10T05:51:28.595Z,400.0000
2023-05-10T05:52:36.643Z,400.0000
2023-05-10T05:53:44.740Z,400.0714
2023-05-10T05:54:52.754Z,400.2857
2023-05-10T05:56:00.854Z,400.1429
2023-05-10T05:57:08.739Z,400.0000
2023-05-10T05:58:16.825Z,400.0000
2023-05-10T05:59:24.904Z,400.0000
2023-05-10T06:00:33.149Z,400.2857
2023-05-10T06:01:41.168Z,400.2143
2023-05-10T06:02:49.326Z,400.1429
2023-05-10T06:03:57.323Z,400.2143
2023-05-10T06:05:05.339Z,400.4286
2023-05-10T06:06:13.385Z,400.2857
2023-05-10T06:07:21.422Z,405.0000
2023-05-10T06:08:29.600Z,402.6429
2023-05-10T06:09:37.524Z,402.7143
2023-05-10T06:10:45.589Z,402.5714
2023-05-10T06:11:53.530Z,405.1429
2023-05-10T06:13:01.594Z,405.5000
2023-05-10T06:14:09.683Z,410.1429
2023-05-10T06:15:18.066Z,414.0000
2023-05-10T06:16:26.050Z,416.3571
2023-05-10T06:17:34.006Z,419.2143
2023-05-10T06:18:42.002Z,424.6429
2023-05-10T06:19:50.128Z,424.2143
2023-05-10T06:20:58.204Z,429.5000
2023-05-10T06:22:06.224Z,427.2143
2023-05-10T06:23:14.459Z,428.6429
2023-05-10T06:24:22.348Z,427.5714
2023-05-10T06:25:30.358Z,426.7143
2023-05-10T06:26:38.297Z,421.3571
2023-05-10T06:27:49.766Z,416.7143
2023-05-10T06:28:59.456Z,419.8000
2023-05-10T06:30:13.071Z,417.8571
2023-05-10T06:31:20.387Z,414.9333
2023-05-10T06:32:28.518Z,415.7857
2023-05-10T06:33:36.532Z,405.9286
2023-05-10T06:34:44.687Z,404.7857
2023-05-10T06:35:52.662Z,402.5714
2023-05-10T06:37:00.852Z,400.2143
2023-05-10T06:38:08.769Z,400.0714
2023-05-10T06:39:16.699Z,400.0000
2023-05-10T06:40:24.933Z,400.2857
2023-05-10T06:41:32.785Z,400.2143
2023-05-10T06:42:41.184Z,400.0000
2023-05-10T06:43:49.084Z,400.0000
2023-05-10T06:44:57.323Z,400.2857
2023-05-10T06:46:05.242Z,400.0000
2023-05-10T06:47:13.218Z,400.0000
2023-05-10T06:48:21.308Z,400.0000
2023-05-10T06:49:29.365Z,400.0000
2023-05-10T06:50:37.407Z,400.0000
2023-05-10T06:51:45.455Z,400.0000
2023-05-10T06:52:53.530Z,400.0000
2023-05-10T06:54:01.460Z,400.0000
2023-05-10T06:55:09.513Z,400.0000
2023-05-10T06:56:17.602Z,400.0000
2023-05-10T06:57:31.794Z,400.0000
2023-05-10T06:58:38.692Z,400.0000
2023-05-10T06:59:46.752Z,400.0000
2023-05-10T07:00:54.831Z,400.0000
2023-05-10T07:02:02.899Z,400.0000
2023-05-10T07:03:11.038Z,400.0000
2023-05-10T07:04:19.223Z,400.0000
2023-05-10T07:05:27.053Z,400.0000
2023-05-10T07:06:35.169Z,400.0000
2023-05-10T07:07:43.072Z,400.1429
2023-05-10T07:08:51.091Z,400.0714
2023-05-10T07:09:59.128Z,401.1429
2023-05-10T07:11:07.327Z,401.7857
2023-05-10T07:12:16.046Z,400.7857
2023-05-10T07:13:23.651Z,408.1429
2023-05-10T07:14:31.511Z,409.5000
2023-05-10T07:15:39.580Z,408.4286
2023-05-10T07:16:47.654Z,407.4286
2023-05-10T07:17:55.711Z,405.7143
2023-05-10T07:19:03.792Z,407.8571
2023-05-10T07:20:11.954Z,404.2143
2023-05-10T07:21:20.009Z,404.0714
2023-05-10T07:22:27.809Z,404.9286
2023-05-10T07:23:35.894Z,403.2857
2023-05-10T07:24:43.901Z,409.8571
2023-05-10T07:25:52.104Z,415.5000
2023-05-10T07:27:00.261Z,421.0714
2023-05-10T07:28:08.197Z,427.9286
2023-05-10T07:29:16.411Z,433.0714
2023-05-10T07:30:24.413Z,438.9286
2023-05-10T07:31:32.429Z,434.5000
2023-05-10T07:32:40.596Z,432.1429
2023-05-10T07:33:48.538Z,430.4286
2023-05-10T07:34:56.628Z,425.5000
2023-05-10T07:36:04.626Z,419.1429
2023-05-10T07:37:12.583Z,415.0000
2023-05-10T07:38:20.633Z,411.3571
2023-05-10T07:39:28.690Z,407.7857
2023-05-10T07:40:36.927Z,403.5000
2023-05-10T07:41:45.199Z,403.8571
2023-05-10T07:42:53.038Z,400.5714
2023-05-10T07:44:01.063Z,401.0000
2023-05-10T07:45:09.247Z,400.2143
2023-05-10T07:46:17.510Z,405.0000
2023-05-10T07:47:25.330Z,405.4286
2023-05-10T07:48:33.368Z,403.0000
2023-05-10T07:49:41.367Z,406.1429
2023-05-10T07:50:49.429Z,412.5000
2023-05-10T07:51:57.342Z,414.2857
2023-05-10T07:53:05.476Z,412.9286
2023-05-10T07:54:13.469Z,413.7143
2023-05-10T07:55:21.664Z,420.7857
2023-05-10T07:56:29.778Z,424.0000
2023-05-10T07:57:37.876Z,420.3571
2023-05-10T07:58:45.891Z,426.0000
2023-05-10T07:59:53.938Z,423.9286
2023-05-10T08:01:02.075Z,422.6429
2023-05-10T08:02:10.035Z,422.7857
2023-05-10T08:03:18.208Z,433.7143
2023-05-10T08:04:26.238Z,433.4286
2023-05-10T08:05:35.807Z,429.3571
2023-05-10T08:06:47.140Z,426.6000
2023-05-10T08:07:55.056Z,420.5000
2023-05-10T08:09:03.153Z,428.2143
2023-05-10T08:10:11.283Z,424.1429
2023-05-10T08:11:19.372Z,418.4286
2023-05-10T08:12:27.406Z,416.5714
2023-05-10T08:13:35.561Z,418.0000
2023-05-10T08:14:43.602Z,410.1429
2023-05-10T08:15:51.823Z,405.2143
2023-05-10T08:16:59.807Z,400.0000
2023-05-10T08:18:07.873Z,401.6429
2023-05-10T08:19:15.813Z,400.7857
2023-05-10T08:20:23.819Z,403.8571
2023-05-10T08:21:31.848Z,413.6429
2023-05-10T08:22:39.792Z,415.7143
2023-05-10T08:23:47.900Z,414.6429
2023-05-10T08:24:56.268Z,417.3571
2023-05-10T08:26:04.131Z,425.8571
2023-05-10T08:27:12.222Z,438.7857
2023-05-10T08:28:20.261Z,440.5714
2023-05-10T08:29:30.440Z,440.4286
2023-05-10T08:30:41.449Z,443.0667
2023-05-10T08:31:49.343Z,442.6429
2023-05-10T08:32:57.352Z,448.0714
2023-05-10T08:34:05.385Z,446.5000
2023-05-10T08:35:13.337Z,445.1429
2023-05-10T08:36:21.359Z,448.2857
2023-05-10T08:37:29.400Z,447.7143
2023-05-10T08:38:37.643Z,442.4286
2023-05-10T08:39:45.736Z,440.8571
2023-05-10T08:40:53.738Z,436.5000
2023-05-10T08:42:01.784Z,441.7857
2023-05-10T08:43:09.849Z,437.8571
2023-05-10T08:44:17.881Z,435.2857
2023-05-10T08:45:26.009Z,434.7143
2023-05-10T08:46:34.033Z,440.7857
2023-05-10T08:47:42.069Z,444.8571
2023-05-10T08:48:50.173Z,459.0000
2023-05-10T08:49:58.078Z,466.0000
2023-05-10T08:51:06.095Z,461.3571
2023-05-10T08:52:14.141Z,460.0000
2023-05-10T08:53:22.378Z,460.2857
2023-05-10T08:54:30.417Z,457.7857
2023-05-10T08:55:38.451Z,452.2143
2023-05-10T08:56:49.199Z,452.2143
2023-05-10T08:57:59.475Z,446.4667
2023-05-10T08:59:07.578Z,440.6429
2023-05-10T09:00:15.703Z,434.7857
2023-05-10T09:01:23.710Z,430.5714
2023-05-10T09:02:31.774Z,433.2143
2023-05-10T09:03:39.828Z,425.4286
2023-05-10T09:04:47.902Z,416.7143
2023-05-10T09:05:55.809Z,417.6429
2023-05-10T09:07:03.829Z,413.7143
2023-05-10T09:08:12.150Z,411.6429
2023-05-10T09:09:20.170Z,405.7857
2023-05-10T09:10:28.224Z,405.0000
2023-05-10T09:11:36.194Z,405.2143
2023-05-10T09:12:44.260Z,414.0000
2023-05-10T09:13:52.301Z,411.0714
2023-05-10T09:15:00.584Z,404.7857
2023-05-10T09:16:20.342Z,403.5714
2023-05-10T09:17:21.299Z,401.6667
2023-05-10T09:18:29.322Z,400.6429
2023-05-10T09:19:37.333Z,400.0000
2023-05-10T09:20:45.623Z,400.0000
2023-05-10T09:21:53.593Z,400.0000
2023-05-10T09:23:01.634Z,400.0000
2023-05-10T09:24:09.722Z,400.0000
2023-05-10T09:25:18.121Z,400.0000
2023-05-10T09:26:25.861Z,400.0714
2023-05-10T09:27:33.887Z,400.5714
2023-05-10T09:28:41.931Z,400.0000
2023-05-10T09:29:50.058Z,400.0000
2023-05-10T09:30:58.124Z,400.5714
2023-05-10T09:32:05.956Z,404.7857
2023-05-10T09:33:14.062Z,405.4286
2023-05-10T09:34:22.130Z,402.5714
2023-05-10T09:35:30.342Z,402.0714
2023-05-10T09:36:38.492Z,404.5000
2023-05-10T09:37:46.402Z,402.4286
2023-05-10T09:38:54.493Z,401.5000
2023-05-10T09:40:02.482Z,400.2143
2023-05-10T09:41:10.694Z,400.0000
2023-05-10T09:42:18.633Z,400.0000
2023-05-10T09:43:26.672Z,400.0000
2023-05-10T09:44:34.748Z,400.0000
2023-05-10T09:45:42.799Z,400.0000
2023-05-10T09:46:50.739Z,400.0000
2023-05-10T09:47:58.790Z,400.0000
2023-05-10T09:49:06.787Z,400.0000
2023-05-10T09:50:14.983Z,400.0000
2023-05-10T09:51:23.130Z,400.0000
2023-05-10T09:52:31.086Z,400.0000
2023-05-10T09:53:39.160Z,400.0000
2023-05-10T09:54:47.212Z,400.0000
2023-05-10T09:55:55.316Z,400.0000
2023-05-10T09:57:03.318Z,400.0000
2023-05-10T09:58:11.659Z,400.0000
2023-05-10T09:59:19.423Z,400.0000
2023-05-10T10:00:27.613Z,400.0000
2023-05-10T10:01:35.500Z,400.0000
2023-05-10T10:02:43.513Z,400.0000
2023-05-10T10:03:51.522Z,400.0000
2023-05-10T10:04:59.895Z,400.0000
2023-05-10T10:06:15.901Z,400.0000
2023-05-10T10:07:20.678Z,405.8667
2023-05-10T10:08:28.736Z,416.6429
2023-05-10T10:09:36.770Z,427.7143
2023-05-10T10:10:46.017Z,434.7143
2023-05-10T10:11:53.001Z,438.7857
2023-05-10T10:13:00.963Z,440.2143
2023-05-10T10:14:09.059Z,444.3571
2023-05-10T10:15:17.105Z,450.8571
2023-05-10T10:16:25.021Z,458.1429
2023-05-10T10:17:33.097Z,450.5714
2023-05-10T10:18:41.308Z,449.9286
2023-05-10T10:19:49.310Z,448.4286
2023-05-10T10:20:57.421Z,441.5000
2023-05-10T10:22:05.539Z,432.8571
2023-05-10T10:23:15.170Z,431.2857
2023-05-10T10:24:26.395Z,431.0000
2023-05-10T10:25:34.602Z,423.4286
2023-05-10T10:26:42.515Z,410.5714
2023-05-10T10:27:50.596Z,411.0000
2023-05-10T10:28:58.501Z,403.4286
2023-05-10T10:30:06.546Z,401.1429
2023-05-10T10:31:14.713Z,403.1429
2023-05-10T10:32:22.800Z,406.6429
2023-05-10T10:33:30.996Z,414.7143
2023-05-10T10:34:38.905Z,422.2857
2023-05-10T10:35:46.982Z,428.5000
2023-05-10T10:36:55.006Z,425.4286
2023-05-10T10:38:03.141Z,447.9286
2023-05-10T10:39:11.146Z,462.0000
2023-05-10T10:40:19.275Z,472.5714
2023-05-10T10:41:27.222Z,483.2143
2023-05-10T10:42:35.351Z,484.2143
2023-05-10T10:43:43.244Z,488.1429
2023-05-10T10:44:51.278Z,492.7143
2023-05-10T10:45:59.362Z,505.2143
2023-05-10T10:47:07.728Z,519.7143
2023-05-10T10:48:15.636Z,515.4286
2023-05-10T10:49:23.628Z,518.5714
2023-05-10T10:50:31.809Z,518.2143
2023-05-10T10:51:39.915Z,514.7857
2023-05-10T10:52:48.002Z,515.8571
2023-05-10T10:53:55.851Z,516.2857
2023-05-10T10:55:04.118Z,522.3571
2023-05-10T10:56:12.031Z,531.5000
2023-05-10T10:57:20.077Z,532.7143
2023-05-10T10:58:27.954Z,535.2857
2023-05-10T10:59:36.018Z,539.8571
2023-05-10T11:00:44.114Z,539.8571
2023-05-10T11:01:52.395Z,523.7143
2023-05-10T11:03:00.378Z,504.2143
2023-05-10T11:04:08.379Z,484.1429
2023-05-10T11:05:16.575Z,466.5000
2023-05-10T11:06:24.680Z,459.3571
2023-05-10T11:07:32.605Z,458.7143
2023-05-10T11:08:40.595Z,436.1429
2023-05-10T11:09:48.661Z,431.1429
2023-05-10T11:10:56.910Z,428.1429
2023-05-10T11:12:04.844Z,413.7143
2023-05-10T11:13:12.683Z,407.5000
2023-05-10T11:14:20.733Z,402.0000
2023-05-10T11:15:28.775Z,400.8571
2023-05-10T11:16:37.011Z,400.0000
2023-05-10T11:17:45.259Z,400.0000
2023-05-10T11:18:53.091Z,400.3571
2023-05-10T11:20:01.114Z,400.0000
2023-05-10T11:21:09.341Z,400.0000
2023-05-10T11:22:17.194Z,400.0000
2023-05-10T11:23:25.367Z,400.0000
2023-05-10T11:24:33.452Z,400.0000
2023-05-10T11:25:41.644Z,400.0000
2023-05-10T11:26:49.476Z,400.0000
2023-05-10T11:27:57.448Z,400.0000
2023-05-10T11:29:05.520Z,400.0000
2023-05-10T11:30:13.647Z,400.0000
2023-05-10T11:31:21.829Z,400.0000
2023-05-10T11:32:29.819Z,400.0000
2023-05-10T11:33:37.925Z,400.0000
2023-05-10T11:34:45.849Z,401.0714
2023-05-10T11:35:53.968Z,412.9286
2023-05-10T11:37:01.984Z,429.3571
2023-05-10T11:38:10.075Z,431.7143
2023-05-10T11:39:18.054Z,432.8571
2023-05-10T11:40:26.137Z,434.3571
2023-05-10T11:41:34.394Z,421.4286
2023-05-10T11:42:42.116Z,414.5000
2023-05-10T11:43:50.136Z,419.0714
2023-05-10T11:44:58.248Z,418.8571
2023-05-10T11:46:06.633Z,418.9286
2023-05-10T11:47:15.309Z,412.3571
2023-05-10T11:48:22.589Z,403.0000
2023-05-10T11:49:30.855Z,400.1429
2023-05-10T11:50:38.631Z,400.0000
2023-05-10T11:51:46.678Z,400.0000
2023-05-10T11:52:54.801Z,400.0000
2023-05-10T11:54:02.867Z,400.0000
2023-05-10T11:55:10.859Z,400.0000
2023-05-10T11:56:18.939Z,400.0000
2023-05-10T11:57:27.020Z,400.0000
2023-05-10T11:58:34.905Z,400.0000
2023-05-10T11:59:43.345Z,400.0000
2023-05-10T12:00:51.020Z,400.0000
2023-05-10T12:01:59.177Z,400.0000
2023-05-10T12:03:07.374Z,400.0000
2023-05-10T12:04:15.445Z,400.0000
2023-05-10T12:05:23.366Z,400.0000
2023-05-10T12:06:31.468Z,400.0000
2023-05-10T12:07:39.547Z,400.0000
2023-05-10T12:08:47.520Z,400.7857
2023-05-10T12:09:55.570Z,418.2143
2023-05-10T12:11:03.646Z,446.0000
2023-05-10T12:12:11.706Z,450.0714
2023-05-10T12:13:19.649Z,464.0000
2023-05-10T12:14:27.718Z,456.4286
2023-05-10T12:15:35.755Z,445.4286
2023-05-10T12:16:43.987Z,439.4286
2023-05-10T12:17:52.075Z,428.1429
2023-05-10T12:19:00.077Z,419.1429
2023-05-10T12:20:08.088Z,409.3571
2023-05-10T12:21:16.194Z,402.0714
2023-05-10T12:22:24.224Z,400.0000
2023-05-10T12:23:32.334Z,400.0000
2023-05-10T12:24:40.384Z,400.0000
2023-05-10T12:25:48.417Z,400.0000
2023-05-10T12:26:56.425Z,400.0000
2023-05-10T12:28:04.423Z,400.0000
2023-05-10T12:29:12.428Z,400.0000
2023-05-10T12:30:20.482Z,400.0000
2023-05-10T12:31:28.836Z,400.0000
2023-05-10T12:32:36.750Z,400.0000
2023-05-10T12:33:44.798Z,400.7857
2023-05-10T12:34:52.860Z,406.7143
2023-05-10T12:36:00.894Z,432.1429
2023-05-10T12:37:08.905Z,441.8571
2023-05-10T12:38:17.077Z,460.0000
2023-05-10T12:39:25.046Z,477.3571
2023-05-10T12:40:33.221Z,494.2143
2023-05-10T12:41:43.518Z,507.7857
2023-05-10T12:42:53.999Z,516.7333
2023-05-10T12:44:02.025Z,522.4286
2023-05-10T12:45:10.069Z,505.4286
2023-05-10T12:46:18.315Z,493.2857
2023-05-10T12:47:26.442Z,481.3571
2023-05-10T12:48:34.383Z,472.7143
2023-05-10T12:49:42.475Z,470.5000
2023-05-10T12:50:50.453Z,462.8571
2023-05-10T12:51:58.517Z,457.5714
2023-05-10T12:53:06.630Z,456.9286
2023-05-10T12:54:14.818Z,447.5000
2023-05-10T12:55:22.704Z,452.5000
2023-05-10T12:56:30.854Z,453.6429
2023-05-10T12:57:38.677Z,456.7143
2023-05-10T12:58:46.760Z,460.2857
2023-05-10T12:59:54.804Z,466.2857
2023-05-10T13:01:03.172Z,474.0714
2023-05-10T13:02:11.060Z,473.6429
2023-05-10T13:03:19.285Z,484.5714
2023-05-10T13:04:27.201Z,485.5714
2023-05-10T13:05:35.285Z,483.3571
2023-05-10T13:06:43.348Z,469.0000
2023-05-10T13:07:51.472Z,481.0714
2023-05-10T13:08:59.509Z,480.7143
2023-05-10T13:10:07.586Z,473.0714
2023-05-10T13:11:15.694Z,466.0000
2023-05-10T13:12:23.537Z,451.1429
2023-05-10T13:13:31.606Z,428.6429
2023-05-10T13:14:39.623Z,415.0714
2023-05-10T13:15:47.788Z,403.3571
2023-05-10T13:16:55.973Z,405.0714
2023-05-10T13:18:04.120Z,410.3571
2023-05-10T13:19:12.256Z,415.6429
2023-05-10T13:20:20.014Z,411.2143